createdAt,value
2023-12-22T00:02:42.422Z,1002
2023-12-22T00:07:43.593Z,1003
2023-12-22T00:12:44.528Z,1002
2023-12-22T00:17:45.452Z,1002
2023-12-22T00:22:46.586Z,1002
2023-12-22T00:27:47.972Z,1002
2023-12-22T00:32:49.200Z,1002
2023-12-22T00:37:50.735Z,1002
2023-12-22T00:42:51.850Z,1002
2023-12-22T00:47:53.815Z,1002
2023-12-22T00:52:55.345Z,1002
2023-12-22T00:57:56.318Z,1002
2023-12-22T01:02:57.328Z,1002
2023-12-22T01:07:58.466Z,1002
2023-12-22T01:12:59.409Z,1002
2023-12-22T01:18:00.349Z,1002
2023-12-22T01:23:01.354Z,1003
2023-12-22T01:28:06.042Z,1003
2023-12-22T01:33:07.448Z,1003
2023-12-22T01:38:08.571Z,1003
2023-12-22T01:43:09.377Z,1003
2023-12-22T01:48:10.241Z,1003
2023-12-22T01:53:11.257Z,1003
2023-12-22T01:58:12.043Z,1003
2023-12-22T02:03:13.044Z,1003
2023-12-22T02:08:14.018Z,1004
2023-12-22T02:13:15.073Z,1003
2023-12-22T02:18:16.216Z,1004
2023-12-22T02:23:17.238Z,1003
2023-12-22T02:28:18.350Z,1003
2023-12-22T02:33:19.180Z,1003
2023-12-22T02:38:20.100Z,1003
2023-12-22T02:43:21.129Z,1003
2023-12-22T02:48:22.317Z,1003
2023-12-22T02:53:23.403Z,1003
2023-12-22T02:58:24.532Z,1003
2023-12-22T03:03:25.507Z,1003
2023-12-22T03:08:26.246Z,1003
2023-12-22T03:13:27.027Z,1003
2023-12-22T03:18:28.107Z,1003
2023-12-22T03:23:29.076Z,1003
2023-12-22T03:28:29.921Z,1003
2023-12-22T03:33:30.940Z,1004
2023-12-22T03:38:31.892Z,1004
2023-12-22T03:43:32.771Z,1004
2023-12-22T03:48:33.949Z,1004
2023-12-22T03:53:35.052Z,1004
2023-12-22T03:58:36.214Z,1004
2023-12-22T04:03:37.097Z,1004
2023-12-22T04:08:38.066Z,1004
2023-12-22T04:13:39.186Z,1004
2023-12-22T04:18:40.367Z,1004
2023-12-22T04:23:41.344Z,1004
2023-12-22T04:28:42.336Z,1004
2023-12-22T04:33:43.446Z,1004
2023-12-22T04:38:44.451Z,1004
2023-12-22T04:43:45.452Z,1004
2023-12-22T04:48:46.355Z,1004
2023-12-22T04:53:47.430Z,1004
2023-12-22T04:58:48.485Z,1004
2023-12-22T05:03:49.412Z,1004
2023-12-22T05:08:50.341Z,1004
2023-12-22T05:13:51.382Z,1004
2023-12-22T05:18:52.432Z,1004
2023-12-22T05:23:53.351Z,1004
2023-12-22T05:28:54.388Z,1004
2023-12-22T05:33:55.389Z,1004
2023-12-22T05:38:55.975Z,1004
2023-12-22T05:43:57.149Z,1004
2023-12-22T05:48:58.326Z,1004
2023-12-22T05:53:59.285Z,1004
2023-12-22T05:59:00.425Z,1004
2023-12-22T06:04:01.473Z,1004
2023-12-22T06:09:02.210Z,1004
2023-12-22T06:14:03.469Z,1005
2023-12-22T06:19:04.537Z,1005
2023-12-22T06:24:05.381Z,1005
2023-12-22T06:29:06.466Z,1005
2023-12-22T06:34:07.495Z,1005
2023-12-22T06:39:08.507Z,1005
2023-12-22T06:44:09.526Z,1005
2023-12-22T06:49:10.577Z,1005
2023-12-22T06:54:15.634Z,1005
2023-12-22T06:59:19.308Z,1005
2023-12-22T07:04:20.884Z,1005
2023-12-22T07:09:21.856Z,1005
2023-12-22T07:14:24.325Z,1006
2023-12-22T07:19:25.338Z,1006
2023-12-22T07:24:26.300Z,1006
2023-12-22T07:29:27.322Z,1006
2023-12-22T07:34:29.468Z,1006
2023-12-22T07:39:30.280Z,1006
2023-12-22T07:44:31.371Z,1006
2023-12-22T07:49:33.904Z,1006
2023-12-22T07:54:34.994Z,1006
2023-12-22T07:59:36.038Z,1006
2023-12-22T08:04:37.043Z,1006
2023-12-22T08:09:38.028Z,1006
2023-12-22T08:14:39.119Z,1006
2023-12-22T08:19:44.651Z,1006
2023-12-22T08:24:47.146Z,1007
2023-12-22T08:29:48.130Z,1006
2023-12-22T08:34:49.116Z,1007
2023-12-22T08:39:50.161Z,1007
2023-12-22T08:44:51.197Z,1007
2023-12-22T08:49:52.315Z,1006
2023-12-22T08:54:53.296Z,1006
2023-12-22T08:59:54.438Z,1007
2023-12-22T09:04:55.670Z,1006
2023-12-22T09:09:56.670Z,1006
2023-12-22T09:14:57.640Z,1006
2023-12-22T09:19:58.596Z,1007
2023-12-22T09:24:59.566Z,1006
2023-12-22T09:30:00.595Z,1007
2023-12-22T09:35:01.779Z,1007
2023-12-22T09:40:02.848Z,1006
2023-12-22T09:45:03.884Z,1006
2023-12-22T09:50:04.914Z,1006
2023-12-22T09:55:05.713Z,1006
2023-12-22T10:00:06.502Z,1006
2023-12-22T10:05:07.413Z,1006
2023-12-22T10:10:08.441Z,1007
2023-12-22T10:15:09.472Z,1006
2023-12-22T10:20:11.052Z,1006
2023-12-22T10:25:12.222Z,1007
2023-12-22T10:30:13.291Z,1007
2023-12-22T10:35:14.249Z,1006
2023-12-22T10:40:15.394Z,1006
2023-12-22T10:45:16.411Z,1006
2023-12-22T10:50:17.670Z,1006
2023-12-22T10:55:18.675Z,1006
2023-12-22T11:00:19.748Z,1006
2023-12-22T11:05:20.756Z,1006
2023-12-22T11:10:21.738Z,1006
2023-12-22T11:15:22.517Z,1006
2023-12-22T11:20:23.589Z,1006
2023-12-22T11:25:24.646Z,1006
2023-12-22T11:30:25.617Z,1006
2023-12-22T11:35:34.153Z,1006
2023-12-22T11:40:36.431Z,1006
2023-12-22T11:45:37.400Z,1006
2023-12-22T11:50:38.327Z,1006
2023-12-22T11:55:39.273Z,1006
2023-12-22T12:00:40.248Z,1006
2023-12-22T12:05:41.438Z,1006
2023-12-22T12:10:42.518Z,1006
2023-12-22T12:15:43.520Z,1005
2023-12-22T12:20:44.492Z,1005
2023-12-22T12:25:45.511Z,1005
2023-12-22T12:30:46.494Z,1005
2023-12-22T12:35:52.875Z,1005
2023-12-22T12:40:55.475Z,1005
2023-12-22T12:45:56.543Z,1005
2023-12-22T12:50:57.486Z,1005
2023-12-22T12:55:58.522Z,1005
2023-12-22T13:00:59.640Z,1005
2023-12-22T13:06:00.670Z,1005
2023-12-22T13:11:01.789Z,1005
2023-12-22T13:16:02.764Z,1005
2023-12-22T13:21:03.715Z,1005
2023-12-22T13:26:04.746Z,1005
2023-12-22T13:31:05.762Z,1005
2023-12-22T13:36:06.680Z,1005
2023-12-22T13:41:07.727Z,1005
2023-12-22T13:46:08.567Z,1005
2023-12-22T13:51:09.489Z,1005
2023-12-22T13:56:10.654Z,1005
2023-12-22T14:01:11.761Z,1005
2023-12-22T14:06:12.809Z,1005
2023-12-22T14:11:13.865Z,1005
2023-12-22T14:16:14.839Z,1005
2023-12-22T14:21:15.757Z,1005
2023-12-22T14:26:16.774Z,1005
2023-12-22T14:31:17.755Z,1005
2023-12-22T14:36:18.684Z,1005
2023-12-22T14:41:19.809Z,1005
2023-12-22T14:46:20.803Z,1005
2023-12-22T14:51:21.759Z,1005
2023-12-22T14:56:22.696Z,1005
2023-12-22T15:01:23.650Z,1005
2023-12-22T15:06:24.780Z,1005
2023-12-22T15:11:25.764Z,1005
2023-12-22T15:16:26.954Z,1005
2023-12-22T15:21:27.918Z,1005
2023-12-22T15:26:28.867Z,1005
2023-12-22T15:31:30.421Z,1005
2023-12-22T15:36:32.281Z,1005
2023-12-22T15:41:33.519Z,1005
2023-12-22T15:46:35.159Z,1005
2023-12-22T15:51:36.119Z,1005
2023-12-22T15:56:37.093Z,1005
2023-12-22T16:01:38.066Z,1006
2023-12-22T16:06:38.987Z,1006
2023-12-22T16:11:39.937Z,1006
2023-12-22T16:16:40.866Z,1006
2023-12-22T16:21:41.668Z,1006
2023-12-22T16:26:42.639Z,1006
2023-12-22T16:31:43.703Z,1006
2023-12-22T16:36:44.684Z,1006
2023-12-22T16:41:45.629Z,1006
2023-12-22T16:46:46.642Z,1006
2023-12-22T16:51:47.620Z,1006
2023-12-22T16:56:48.572Z,1006
2023-12-22T17:02:07.177Z,1006
2023-12-22T17:07:22.219Z,1006
2023-12-22T17:12:23.231Z,1006
2023-12-22T17:17:24.196Z,1006
2023-12-22T17:22:25.153Z,1006
2023-12-22T17:27:26.109Z,1006
2023-12-22T17:32:27.053Z,1006
2023-12-22T17:37:28.148Z,1006
2023-12-22T17:42:29.088Z,1006
2023-12-22T17:47:30.050Z,1006
2023-12-22T17:52:31.103Z,1006
2023-12-22T17:57:32.063Z,1006
2023-12-22T18:02:33.023Z,1006
2023-12-22T18:07:34.056Z,1006
2023-12-22T18:12:37.629Z,1006
2023-12-22T18:17:38.623Z,1006
2023-12-22T18:22:39.630Z,1006
2023-12-22T18:27:40.656Z,1006
2023-12-22T18:32:41.481Z,1007
2023-12-22T18:37:42.565Z,1007
2023-12-22T18:42:43.577Z,1007
2023-12-22T18:47:44.333Z,1007
2023-12-22T18:52:45.384Z,1007
2023-12-22T18:57:46.449Z,1007
2023-12-22T19:02:55.794Z,1007
2023-12-22T19:08:00.306Z,1007
2023-12-22T19:13:01.915Z,1007
2023-12-22T19:18:03.855Z,1007
2023-12-22T19:23:04.953Z,1007
2023-12-22T19:28:05.959Z,1007
2023-12-22T19:33:07.254Z,1007
2023-12-22T19:38:08.404Z,1007
2023-12-22T19:43:09.398Z,1007
2023-12-22T19:48:10.547Z,1008
2023-12-22T19:53:11.710Z,1008
2023-12-22T19:58:12.708Z,1008
2023-12-22T20:03:13.793Z,1008
2023-12-22T20:08:14.906Z,1008
2023-12-22T20:13:15.873Z,1008
2023-12-22T20:18:17.468Z,1008
2023-12-22T20:23:18.630Z,1008
2023-12-22T20:28:19.706Z,1008
2023-12-22T20:33:20.707Z,1008
2023-12-22T20:38:21.573Z,1008
2023-12-22T20:43:22.582Z,1008
2023-12-22T20:48:23.648Z,1008
2023-12-22T20:53:24.675Z,1008
2023-12-22T20:58:25.657Z,1008
2023-12-22T21:03:26.677Z,1008
2023-12-22T21:08:27.855Z,1008
2023-12-22T21:13:28.860Z,1008
2023-12-22T21:18:29.890Z,1008
2023-12-22T21:23:30.967Z,1008
2023-12-22T21:28:32.077Z,1008
2023-12-22T21:33:33.062Z,1008
2023-12-22T21:38:34.060Z,1008
2023-12-22T21:43:35.090Z,1008
2023-12-22T21:48:36.304Z,1008
2023-12-22T21:53:37.109Z,1008
2023-12-22T21:58:38.147Z,1008
2023-12-22T22:03:39.228Z,1008
2023-12-22T22:08:40.068Z,1008
2023-12-22T22:13:41.145Z,1009
2023-12-22T22:18:42.438Z,1009
2023-12-22T22:23:43.498Z,1009
2023-12-22T22:28:44.531Z,1009
2023-12-22T22:33:45.590Z,1009
2023-12-22T22:38:46.642Z,1009
2023-12-22T22:43:47.677Z,1009
2023-12-22T22:48:48.555Z,1009
2023-12-22T22:53:49.570Z,1009
2023-12-22T22:58:50.685Z,1009
2023-12-22T23:04:00.450Z,1009
2023-12-22T23:09:02.377Z,1009
2023-12-22T23:14:03.533Z,1009
2023-12-22T23:19:04.700Z,1009
2023-12-22T23:24:05.760Z,1009
2023-12-22T23:29:06.741Z,1009
2023-12-22T23:34:07.794Z,1009
2023-12-22T23:39:08.764Z,1009
2023-12-22T23:44:09.784Z,1009
2023-12-22T23:49:10.899Z,1009
2023-12-22T23:54:11.856Z,1009
2023-12-22T23:59:13.028Z,1009
